Aviation Digital Data Service (ADDS)

Output produced by METARs form (1750 UTC 21 October 2017)
found at http://www.aviationweather.gov/adds/metars/
 
KNMM 211656Z AUTO 13011G16KT 10SM SCT037 26/17 A3017 RMK AO2 SLP225 T02610172 $
KNMM 211556Z AUTO 14007KT 110V190 10SM CLR 26/17 A3018 RMK AO2 SLP226 T02560172 $
KNMM 211456Z AUTO 14006KT 10SM CLR 21/16 A3018 RMK AO2 SLP228 T02110161 50010 $
KNMM 211356Z AUTO 11004KT 10SM CLR 18/14 A3018 RMK AO2 SLP229 T01780144 $
KNMM 211256Z AUTO 10003KT 10SM CLR 16/13 A3016 RMK AO2 SLP223 T01560133 $
KNMM 211156Z AUTO 09003KT 10SM CLR 14/12 A3015 RMK AO2 SLP218 T01390122 10156 20139 53012 $
KNMM 211056Z AUTO 00000KT 10SM CLR 14/12 A3013 RMK AO2 SLP213 T01440122 $
KNMM 210956Z AUTO 11003KT 10SM CLR 15/13 A3012 RMK AO2 SLP207 T01500128 $
KNMM 210856Z AUTO 10003KT 10SM CLR 14/13 A3011 RMK AO2 VIS 1 SOUTH SLP205 T01440133 58008 $
KNMM 210756Z AUTO 00000KT 10SM CLR 14/13 A3012 RMK AO2 VIS 1 1/2 SOUTH SLP207 T01440128 $
KNMM 210656Z AUTO 00000KT 10SM CLR 14/13 A3013 RMK AO2 SLP210 T01440133 $
KNMM 210556Z AUTO 10003KT 10SM CLR 16/14 A3014 RMK AO2 VIS 1/2 SOUTH SLP213 T01560144 10217 20156 402780094 58003 $
KNMM 210456Z AUTO 00000KT 10SM CLR 16/15 A3014 RMK AO2 SLP216 T01610150
KNMM 210356Z AUTO 00000KT 10SM CLR 18/15 A3015 RMK AO2 SLP217 T01780150
KNMM 210256Z AUTO 12003KT 10SM CLR 18/16 A3014 RMK AO2 SLP216 T01830156 51008
KNMM 210156Z AUTO 10003KT 10SM CLR 19/16 A3014 RMK AO2 SLP213 T01890156
KNMM 210056Z 11003KT 10SM BKN280 21/16 A3013 RMK AO2 SLP213 T02060156
KNMM 202356Z VRB03KT 10SM FEW200 BKN280 21/16 A3012 RMK AO2 SLP209 T02110161 10278 20211 56001
KNMM 202256Z 09003KT 10SM BKN200 BKN280 23/16 A3013 RMK AO2 SLP210 T02330161
KNMM 202156Z 09007KT 10SM SCT200 BKN280 26/15 A3012 RMK AO2 SLP208 T02610150
KNMM 202056Z 09008KT 10SM FEW045 FEW200 BKN280 27/15 A3013 RMK AO2 SLP210 T02720150 56023
KNMM 201956Z 12006KT 10SM FEW045 SCT220 BKN300 27/14 A3014 RMK AO2 SLP214 T02720139
KNMM 201856Z 08007KT 10SM FEW040 FEW220 BKN300 27/14 A3016 RMK AO2 SLP221 T02720144
KNMM 201756Z VRB05KT 10SM SCT220 BKN300 26/14 A3020 RMK AO2 SLP233 T02560144 10256 20094 58024
KNMM 201656Z 09008KT 10SM SCT220 BKN300 24/14 A3022 RMK AO2 SLP242 T02440139 $
KNMM 201556Z 08006KT 10SM BKN220 BKN300 22/14 A3024 RMK AO2 SLP250 T02220144 $
KNMM 201456Z 12005KT 10SM BKN300 18/13 A3027 RMK AO2 SLP258 T01830133 51012 $
KNMM 201356Z 00000KT 10SM BKN300 15/13 A3026 RMK AO2 SLP258 T01500128 $
KNMM 201256Z 00000KT 10SM BKN300 11/09 A3025 RMK AO2 SLP253 T01060094 $
KNMM 201156Z 00000KT 10SM BKN300 09/08 A3023 RMK AO2 SLP247 T00940083 10128 20094 53006 $
KNMM 201056Z 00000KT 10SM BKN300 10/09 A3022 RMK AO2 SLP244 T01000089 $
KNMM 200956Z AUTO 00000KT 10SM CLR 11/09 A3021 RMK AO2 VIS 1 3/4 SOUTH SLP240 T01060089 $
KNMM 200835Z AUTO 35003KT 4SM BR FEW002 11/09 A3021 RMK AO2 VIS 1/2 SOUTH T01060094 $
KNMM 200756Z AUTO 00000KT 10SM CLR 11/09 A3022 RMK AO2 VIS 2 1/2 SOUTH SLP242 T01060094 $
KNMM 200656Z AUTO 00000KT 10SM CLR 12/11 A3022 RMK AO2 VIS 1/2 SOUTH SLP243 T01170106 $
KNMM 200556Z AUTO 00000KT 10SM CLR 13/12 A3022 RMK AO2 VIS 1 3/4 SOUTH CIG 009 SOUTH SLP242 T01280117 10206 20128 402720061 58002 $
KNMM 200456Z AUTO 00000KT 10SM CLR 13/12 A3022 RMK AO2 VIS 1 SOUTH CIG 004 SOUTH SLP242 T01330122 $
KNMM 200256Z 00000KT 10SM BKN250 15/14 A3022 RMK AO2 VIS 1 3/4 SOUTH SLP245 T01500139 53008 $
KNMM 200156Z 00000KT 10SM BKN250 17/15 A3021 RMK AO2 SLP240 T01670150 $
KNMM 200056Z 00000KT 10SM BKN250 19/14 A3021 RMK AO2 SLP240 T01940144 $
KNMM 192356Z 09003KT 10SM BKN250 20/15 A3020 RMK AO2 SLP236 T02000150 10272 20200 53004 $
KNMM 192256Z 12003KT 10SM BKN250 23/15 A3019 RMK AO2 SLP233 T02280150 $
KNMM 192156Z 07005KT 10SM BKN250 26/13 A3019 RMK AO2 SLP231 T02560128 $
KNMM 192056Z 08005KT 10SM BKN300 26/14 A3019 RMK AO2 SLP232 T02610144 56020 $
KNMM 191956Z VRB04KT 10SM BKN300 26/13 A3019 RMK AO2 SLP233 T02610133 $
KNMM 191856Z 00000KT 10SM BKN300 26/14 A3021 RMK AO2 SLP240 T02560144 $
KNMM 191756Z 08005KT 10SM SCT300 26/14 A3025 RMK AO2 SLP252 T02560144 10261 20061 58015 $
KNMM 191656Z VRB03KT 10SM SCT300 23/14 A3027 RMK AO2 SLP260 T02330139 $
KNMM 191556Z 00000KT 10SM SCT300 21/12 A3029 RMK AO2 SLP268 T02110122 $
KNMM 191456Z VRB03KT 10SM FEW300 17/11 A3029 RMK AO2 SLP268 T01720106 52014 $
KNMM 191356Z 10003KT 10SM SCT028 13/09 A3028 RMK AO2 SLP265 T01280094 $
KNMM 191256Z 00000KT 10SM FEW300 09/07 A3026 RMK AO2 SLP258 T00890072 $
KNMM 191156Z 00000KT 10SM FEW300 07/06 A3025 RMK AO2 SLP254 T00670056 10089 20061 51017 $
KNMM 191056Z 00000KT 10SM FEW300 07/05 A3024 RMK AO2 SLP249 T00720050 $
KNMM 190956Z AUTO 00000KT 10SM CLR 07/06 A3022 RMK AO2 SLP243 T00720061 $
KNMM 190856Z AUTO 00000KT 10SM CLR 08/06 A3020 RMK AO2 SLP237 T00780061 58006 $
KNMM 190756Z AUTO 00000KT 10SM CLR 08/07 A3021 RMK AO2 SLP241 T00780067 $
KNMM 190656Z AUTO 00000KT 10SM CLR 09/07 A3021 RMK AO2 VIS 2 SOUTH SLP241 T00890072 $
KNMM 190556Z AUTO 00000KT 10SM CLR 09/07 A3022 RMK AO2 SLP243 T00940072 10178 20089 402440061 58007 $
KNMM 190456Z AUTO 00000KT 9SM CLR 10/08 A3023 RMK AO2 SLP246 T01000083 $
KNMM 190356Z 00000KT 10SM CLR 11/09 A3024 RMK AO2 SLP251 T01060089 $
KNMM 190256Z 00000KT 10SM CLR 12/09 A3024 RMK AO2 SLP250 T01170094 51012 $
KNMM 190156Z 00000KT 10SM CLR 13/10 A3024 RMK AO2 SLP251 T01280100 $
KNMM 190056Z 32003KT 10SM CLR 14/11 A3023 RMK AO2 SLP249 T01390111 $
KNMM 182356Z 00000KT 10SM CLR 18/09 A3021 RMK AO2 SLP239 T01780094 10244 20178 53005 $
KNMM 182256Z 14003KT 10SM FEW020 20/10 A3019 RMK AO2 SLP234 FU FEW020 T02000100 $
KNMM 182156Z 13005KT 10SM CLR 23/07 A3019 RMK AO2 SLP233 T02330072 $
KNMM 182056Z 07006KT 10SM CLR 24/06 A3019 RMK AO2 SLP234 T02440061 56022 $
KNMM 181956Z 11005KT 10SM CLR 24/07 A3021 RMK AO2 SLP239 T02390067 $
KNMM 181856Z 12006KT 10SM CLR 23/06 A3022 RMK AO2 SLP243 T02330061 $
KNMM 181756Z VRB04KT 10SM CLR 22/07 A3026 RMK AO2 SLP256 T02170067 10222 20061 58015 $